Time;durP1;ratioP1;P1;durP2;ratioP2;P2;SDS_P1;SDS_P2;PMS_P1;PMS_P2;Temp;Humidity;BMP_temperature;BMP_pressure;BME280_temperature;BME280_humidity;BME280_pressure;Samples;Min_cycle;Max_cycle;Signal;HPM_P1;HPM_P2
2023/09/04 00:01:45;;;;;;;0.10;0.10;;;;;;;;;;5096466;28;20607;-44
2023/09/04 00:04:11;;;;;;;0.10;0.10;;;;;;;;;;5096215;28;20470;-44
2023/09/04 00:06:36;;;;;;;0.20;0.20;;;;;;;;;;5096648;28;20063;-44
2023/09/04 00:09:04;;;;;;;0.20;0.20;;;;;;;;;;5098343;28;20047;-44
2023/09/04 00:11:29;;;;;;;0.10;0.10;;;;;;;;;;5099887;28;20067;-43
2023/09/04 00:13:55;;;;;;;0.20;0.20;;;;;;;;;;5100081;28;20047;-44
2023/09/04 00:16:20;;;;;;;0.10;0.10;;;;;;;;;;5099343;28;20086;-43
2023/09/04 00:18:46;;;;;;;0.20;0.20;;;;;;;;;;5097694;28;20477;-44
2023/09/04 00:21:12;;;;;;;0.20;0.20;;;;;;;;;;5100009;28;20040;-44
2023/09/04 00:23:38;;;;;;;0.20;0.20;;;;;;;;;;5099931;28;20071;-44
2023/09/04 00:26:03;;;;;;;0.20;0.20;;;;;;;;;;5099970;28;20067;-44
2023/09/04 00:28:29;;;;;;;0.17;0.17;;;;;;;;;;5089520;28;20054;-43
2023/09/04 00:30:56;;;;;;;0.10;0.10;;;;;;;;;;5079379;28;20055;-44
2023/09/04 00:33:22;;;;;;;0.10;0.10;;;;;;;;;;5095503;28;20437;-44
2023/09/04 00:35:47;;;;;;;0.20;0.20;;;;;;;;;;5098007;28;20067;-43
2023/09/04 00:38:13;;;;;;;0.10;0.10;;;;;;;;;;5084999;28;20052;-44
2023/09/04 00:40:38;;;;;;;0.17;0.17;;;;;;;;;;5087223;28;20051;-44
2023/09/04 00:43:04;;;;;;;0.10;0.10;;;;;;;;;;5099260;28;20452;-44
2023/09/04 00:45:30;;;;;;;0.10;0.10;;;;;;;;;;5099789;28;20422;-43
2023/09/04 00:47:55;;;;;;;0.10;0.10;;;;;;;;;;5100152;28;20047;-43
2023/09/04 00:50:23;;;;;;;0.20;0.20;;;;;;;;;;5099959;28;20492;-44
2023/09/04 00:52:50;;;;;;;0.13;0.13;;;;;;;;;;5099941;28;20090;-44
2023/09/04 00:55:16;;;;;;;0.10;0.10;;;;;;;;;;5099733;28;20043;-44
2023/09/04 00:57:42;;;;;;;0.22;0.20;;;;;;;;;;5099800;28;20071;-43
2023/09/04 01:00:10;;;;;;;0.10;0.10;;;;;;;;;;5099919;28;20055;-43
2023/09/04 01:02:37;;;;;;;0.10;0.10;;;;;;;;;;5099976;28;20043;-44
2023/09/04 01:05:03;;;;;;;0.13;0.13;;;;;;;;;;5099529;28;20177;-43
2023/09/04 01:07:29;;;;;;;0.20;0.20;;;;;;;;;;5099240;28;20044;-44
2023/09/04 01:09:55;;;;;;;0.15;0.15;;;;;;;;;;5099355;28;20097;-44
2023/09/04 01:12:22;;;;;;;0.17;0.17;;;;;;;;;;5099564;28;20082;-43
2023/09/04 01:14:48;;;;;;;0.10;0.10;;;;;;;;;;5099520;28;20078;-44
2023/09/04 01:17:14;;;;;;;0.15;0.15;;;;;;;;;;5099432;28;20279;-43
2023/09/04 01:19:40;;;;;;;0.20;0.20;;;;;;;;;;5097732;28;20392;-43
2023/09/04 01:22:06;;;;;;;0.20;0.20;;;;;;;;;;5099470;28;20047;-44
2023/09/04 01:24:32;;;;;;;0.20;0.20;;;;;;;;;;5099311;28;20232;-44
2023/09/04 01:27:05;;;;;;;0.10;0.10;;;;;;;;;;5099062;28;20058;-44
2023/09/04 01:29:32;;;;;;;0.10;0.10;;;;;;;;;;5080090;28;20402;-44
2023/09/04 01:32:01;;;;;;;0.10;0.10;;;;;;;;;;5060688;28;20070;-44
2023/09/04 01:34:29;;;;;;;0.10;0.10;;;;;;;;;;5090086;28;20048;-43
2023/09/04 01:36:57;;;;;;;0.10;0.10;;;;;;;;;;5098910;28;20083;-44
2023/09/04 01:39:23;;;;;;;0.10;0.10;;;;;;;;;;5080402;28;20072;-43
2023/09/04 01:41:49;;;;;;;0.10;0.10;;;;;;;;;;5080993;28;20054;-43
2023/09/04 01:44:14;;;;;;;0.15;0.15;;;;;;;;;;5098644;28;20044;-45
2023/09/04 01:46:40;;;;;;;0.20;0.20;;;;;;;;;;5098710;28;20055;-43
2023/09/04 01:49:06;;;;;;;0.20;0.20;;;;;;;;;;5098542;28;20093;-45
2023/09/04 01:51:32;;;;;;;0.10;0.10;;;;;;;;;;5098653;28;20051;-44
2023/09/04 01:53:57;;;;;;;0.10;0.10;;;;;;;;;;5098728;28;20565;-44
2023/09/04 01:56:23;;;;;;;0.13;0.13;;;;;;;;;;5098741;28;20051;-43
2023/09/04 01:58:48;;;;;;;0.20;0.20;;;;;;;;;;5098598;28;20150;-44
2023/09/04 02:01:14;;;;;;;0.10;0.10;;;;;;;;;;5093848;28;20058;-44
2023/09/04 02:03:40;;;;;;;0.28;0.28;;;;;;;;;;5098872;28;20040;-45
2023/09/04 02:06:06;;;;;;;0.10;0.10;;;;;;;;;;5098666;28;20051;-44
2023/09/04 02:08:32;;;;;;;0.20;0.20;;;;;;;;;;5086881;28;20473;-44
2023/09/04 02:10:58;;;;;;;0.20;0.20;;;;;;;;;;5077699;28;20510;-44
2023/09/04 02:13:23;;;;;;;0.20;0.20;;;;;;;;;;5077831;28;20056;-44
2023/09/04 02:15:50;;;;;;;0.15;0.15;;;;;;;;;;5077961;28;20109;-44
2023/09/04 02:18:15;;;;;;;0.10;0.10;;;;;;;;;;5077542;28;20060;-43
2023/09/04 02:20:41;;;;;;;0.20;0.20;;;;;;;;;;5081682;28;20107;-44
2023/09/04 02:23:06;;;;;;;0.10;0.10;;;;;;;;;;5097976;28;20044;-44
2023/09/04 02:25:32;;;;;;;0.20;0.20;;;;;;;;;;5097887;28;20061;-44
2023/09/04 02:27:57;;;;;;;0.10;0.10;;;;;;;;;;5092042;28;20098;-45
2023/09/04 02:30:23;;;;;;;0.20;0.20;;;;;;;;;;5077106;28;20048;-44
2023/09/04 02:32:49;;;;;;;0.10;0.10;;;;;;;;;;5077391;28;20052;-43
2023/09/04 02:35:14;;;;;;;0.20;0.20;;;;;;;;;;5080882;28;20051;-44
2023/09/04 02:37:41;;;;;;;0.10;0.10;;;;;;;;;;5092983;28;20547;-44
2023/09/04 02:40:07;;;;;;;0.10;0.10;;;;;;;;;;5077599;28;20047;-45
2023/09/04 02:42:33;;;;;;;0.20;0.20;;;;;;;;;;5077514;28;20074;-43
2023/09/04 02:44:58;;;;;;;0.20;0.20;;;;;;;;;;5091934;28;20135;-44
2023/09/04 02:47:24;;;;;;;0.20;0.20;;;;;;;;;;5096438;28;20438;-43
2023/09/04 02:49:49;;;;;;;0.10;0.10;;;;;;;;;;5077725;28;20464;-44
2023/09/04 02:52:16;;;;;;;0.10;0.10;;;;;;;;;;5077859;28;20060;-45
2023/09/04 02:54:43;;;;;;;0.10;0.10;;;;;;;;;;5102015;28;20530;-44
2023/09/04 02:57:08;;;;;;;0.20;0.20;;;;;;;;;;5118000;28;20414;-43
2023/09/04 02:59:35;;;;;;;0.10;0.10;;;;;;;;;;5078650;28;20040;-43
2023/09/04 03:02:01;;;;;;;0.10;0.10;;;;;;;;;;5077084;28;20055;-43
2023/09/04 03:04:27;;;;;;;0.20;0.20;;;;;;;;;;5077272;28;20048;-43
2023/09/04 03:06:53;;;;;;;0.10;0.10;;;;;;;;;;5093534;28;20058;-43
2023/09/04 03:09:18;;;;;;;0.10;0.10;;;;;;;;;;5097052;28;20094;-43
2023/09/04 03:11:45;;;;;;;0.20;0.20;;;;;;;;;;5096583;28;20047;-44
2023/09/04 03:14:10;;;;;;;0.20;0.20;;;;;;;;;;5096859;28;20063;-43
2023/09/04 03:16:36;;;;;;;0.10;0.10;;;;;;;;;;5096478;28;20134;-44
2023/09/04 03:19:01;;;;;;;0.10;0.10;;;;;;;;;;5096673;28;20092;-44
2023/09/04 03:21:28;;;;;;;0.13;0.13;;;;;;;;;;5097130;28;20052;-45
2023/09/04 03:23:53;;;;;;;0.10;0.10;;;;;;;;;;5096484;28;20281;-44
2023/09/04 03:26:19;;;;;;;0.10;0.10;;;;;;;;;;5097273;28;20062;-44
2023/09/04 03:28:44;;;;;;;0.10;0.10;;;;;;;;;;5084128;28;20051;-44
2023/09/04 03:31:12;;;;;;;0.10;0.10;;;;;;;;;;5076366;28;20055;-44
2023/09/04 03:33:37;;;;;;;0.20;0.20;;;;;;;;;;5076890;28;20146;-44
2023/09/04 03:36:04;;;;;;;0.15;0.15;;;;;;;;;;5076190;28;20416;-43
2023/09/04 03:38:29;;;;;;;0.20;0.20;;;;;;;;;;5090256;28;20040;-44
2023/09/04 03:40:55;;;;;;;0.10;0.10;;;;;;;;;;5097011;28;20488;-45
2023/09/04 03:43:20;;;;;;;0.20;0.20;;;;;;;;;;5099633;28;20428;-43
2023/09/04 03:45:46;;;;;;;0.15;0.15;;;;;;;;;;5100448;28;20058;-43
2023/09/04 03:48:11;;;;;;;0.10;0.10;;;;;;;;;;5092368;28;20113;-43
2023/09/04 03:50:39;;;;;;;0.17;0.17;;;;;;;;;;5079594;28;20052;-44
2023/09/04 03:53:04;;;;;;;0.10;0.10;;;;;;;;;;5087844;28;20087;-44
2023/09/04 03:55:30;;;;;;;0.10;0.10;;;;;;;;;;5120739;28;20134;-43
2023/09/04 03:57:56;;;;;;;0.10;0.10;;;;;;;;;;5109299;28;20147;-45
2023/09/04 04:00:22;;;;;;;0.10;0.10;;;;;;;;;;5080431;28;20059;-43
2023/09/04 04:02:48;;;;;;;0.10;0.10;;;;;;;;;;5080677;28;20052;-43
2023/09/04 04:05:15;;;;;;;0.10;0.10;;;;;;;;;;5080194;28;20079;-43
2023/09/04 04:07:40;;;;;;;0.20;0.20;;;;;;;;;;5079832;28;20656;-43
2023/09/04 04:10:06;;;;;;;0.10;0.10;;;;;;;;;;5079596;28;20063;-43
2023/09/04 04:12:32;;;;;;;0.20;0.20;;;;;;;;;;5080107;28;20054;-45
2023/09/04 04:14:58;;;;;;;0.20;0.20;;;;;;;;;;5079503;28;20489;-44
2023/09/04 04:17:24;;;;;;;0.10;0.10;;;;;;;;;;5079773;28;20132;-43
2023/09/04 04:19:53;;;;;;;0.10;0.10;;;;;;;;;;5079737;28;20143;-44
2023/09/04 04:22:20;;;;;;;0.20;0.20;;;;;;;;;;5079655;28;20051;-44
2023/09/04 04:24:46;;;;;;;0.20;0.20;;;;;;;;;;5087521;28;20043;-44
2023/09/04 04:27:12;;;;;;;0.10;0.10;;;;;;;;;;5099601;28;20055;-45
2023/09/04 04:29:38;;;;;;;0.10;0.10;;;;;;;;;;5079517;28;20109;-44
2023/09/04 04:32:04;;;;;;;0.10;0.10;;;;;;;;;;5079078;28;20052;-43
2023/09/04 04:34:34;;;;;;;0.10;0.10;;;;;;;;;;5079701;28;20372;-44
2023/09/04 04:37:00;;;;;;;0.20;0.20;;;;;;;;;;5080054;28;20052;-43
2023/09/04 04:39:25;;;;;;;0.13;0.13;;;;;;;;;;5087368;28;20082;-44
2023/09/04 04:41:51;;;;;;;0.20;0.20;;;;;;;;;;5100058;28;20051;-45
2023/09/04 04:44:16;;;;;;;0.10;0.10;;;;;;;;;;5099766;28;20130;-44
2023/09/04 04:46:42;;;;;;;0.10;0.10;;;;;;;;;;5099483;28;20048;-44
2023/09/04 04:49:08;;;;;;;0.15;0.15;;;;;;;;;;5098608;28;20256;-44
2023/09/04 04:51:33;;;;;;;0.10;0.10;;;;;;;;;;5098892;28;20104;-45
2023/09/04 04:53:59;;;;;;;0.10;0.10;;;;;;;;;;5104708;28;20445;-44
2023/09/04 04:56:24;;;;;;;0.20;0.20;;;;;;;;;;5119935;28;20479;-45
2023/09/04 04:58:50;;;;;;;0.20;0.20;;;;;;;;;;5100964;28;20100;-44
2023/09/04 05:01:15;;;;;;;0.20;0.20;;;;;;;;;;5098991;28;20048;-43
2023/09/04 05:03:41;;;;;;;0.20;0.20;;;;;;;;;;5099348;28;20056;-45
2023/09/04 05:06:07;;;;;;;0.30;0.30;;;;;;;;;;5099132;28;20105;-44
2023/09/04 05:08:33;;;;;;;0.20;0.20;;;;;;;;;;5099073;28;20055;-44
2023/09/04 05:11:00;;;;;;;0.10;0.10;;;;;;;;;;5098409;28;20424;-44
2023/09/04 05:13:26;;;;;;;0.10;0.10;;;;;;;;;;5099480;28;20131;-44
2023/09/04 05:15:51;;;;;;;0.20;0.20;;;;;;;;;;5098805;28;20056;-44
2023/09/04 05:18:17;;;;;;;0.10;0.10;;;;;;;;;;5098822;28;20052;-43
2023/09/04 05:20:42;;;;;;;0.20;0.20;;;;;;;;;;5098725;28;20043;-45
2023/09/04 05:23:08;;;;;;;0.20;0.20;;;;;;;;;;5099562;28;20055;-44
2023/09/04 05:25:33;;;;;;;0.17;0.17;;;;;;;;;;5099391;28;20416;-45
2023/09/04 05:27:59;;;;;;;0.10;0.10;;;;;;;;;;5092359;28;20519;-46
2023/09/04 05:30:24;;;;;;;0.15;0.15;;;;;;;;;;5079125;28;20048;-45
2023/09/04 05:32:52;;;;;;;0.20;0.20;;;;;;;;;;5088612;28;20043;-45
2023/09/04 05:35:17;;;;;;;0.10;0.10;;;;;;;;;;5098941;28;20051;-45
2023/09/04 05:37:43;;;;;;;0.20;0.20;;;;;;;;;;5098319;28;20126;-47
2023/09/04 05:40:09;;;;;;;0.40;0.40;;;;;;;;;;5093361;28;20082;-45
2023/09/04 05:42:34;;;;;;;0.10;0.10;;;;;;;;;;5094272;28;20059;-45
2023/09/04 05:45:00;;;;;;;0.10;0.10;;;;;;;;;;5092200;28;20449;-47
2023/09/04 05:47:25;;;;;;;0.10;0.10;;;;;;;;;;5095636;28;20515;-45
2023/09/04 05:49:51;;;;;;;0.10;0.10;;;;;;;;;;5091423;28;20044;-47
2023/09/04 05:52:16;;;;;;;0.10;0.10;;;;;;;;;;5085440;28;20618;-49
2023/09/04 05:54:42;;;;;;;0.10;0.10;;;;;;;;;;5093607;28;20430;-44
2023/09/04 05:57:08;;;;;;;0.10;0.10;;;;;;;;;;5087086;28;20438;-45
2023/09/04 05:59:33;;;;;;;0.10;0.10;;;;;;;;;;5075237;28;20036;-46
2023/09/04 06:01:59;;;;;;;0.10;0.10;;;;;;;;;;5069136;28;20409;-46
2023/09/04 06:04:24;;;;;;;0.20;0.20;;;;;;;;;;5068337;28;20044;-44
2023/09/04 06:06:51;;;;;;;0.10;0.10;;;;;;;;;;5068270;28;20526;-45
2023/09/04 06:09:17;;;;;;;0.10;0.10;;;;;;;;;;5081768;28;20066;-45
2023/09/04 06:11:43;;;;;;;0.10;0.10;;;;;;;;;;5074744;28;20039;-45
2023/09/04 06:14:08;;;;;;;0.20;0.20;;;;;;;;;;5072096;28;20478;-43
2023/09/04 06:16:34;;;;;;;0.10;0.10;;;;;;;;;;5075196;28;20650;-46
2023/09/04 06:19:00;;;;;;;0.15;0.15;;;;;;;;;;5075394;28;20490;-44
2023/09/04 06:21:26;;;;;;;0.10;0.10;;;;;;;;;;5073171;28;20561;-44
2023/09/04 06:23:51;;;;;;;0.10;0.10;;;;;;;;;;5072721;28;20048;-44
2023/09/04 06:26:17;;;;;;;0.15;0.15;;;;;;;;;;5080763;28;20107;-44
2023/09/04 06:28:43;;;;;;;0.20;0.20;;;;;;;;;;5089191;28;20055;-44
2023/09/04 06:31:08;;;;;;;0.10;0.10;;;;;;;;;;5080505;28;20048;-43
2023/09/04 06:33:37;;;;;;;0.43;0.28;;;;;;;;;;5084372;28;20586;-44
2023/09/04 06:36:04;;;;;;;0.10;0.10;;;;;;;;;;5080167;28;20141;-45
2023/09/04 06:38:29;;;;;;;0.10;0.10;;;;;;;;;;5086026;28;20475;-51
2023/09/04 06:40:57;;;;;;;0.10;0.10;;;;;;;;;;5075677;28;20071;-48
2023/09/04 06:43:23;;;;;;;0.10;0.10;;;;;;;;;;5077277;28;20056;-44
2023/09/04 06:45:49;;;;;;;0.10;0.10;;;;;;;;;;5078481;28;20093;-44
2023/09/04 06:48:15;;;;;;;0.10;0.10;;;;;;;;;;5083632;28;20408;-44
2023/09/04 06:50:40;;;;;;;0.10;0.10;;;;;;;;;;5077358;28;20621;-43
2023/09/04 06:53:06;;;;;;;0.20;0.20;;;;;;;;;;5073755;28;20049;-44
2023/09/04 06:55:31;;;;;;;0.10;0.10;;;;;;;;;;5059214;28;20476;-43
2023/09/04 06:57:57;;;;;;;0.20;0.20;;;;;;;;;;5064306;28;20406;-43
2023/09/04 07:00:22;;;;;;;0.20;0.20;;;;;;;;;;5071055;28;20052;-43
2023/09/04 07:02:48;;;;;;;0.20;0.20;;;;;;;;;;5070635;28;20096;-47
2023/09/04 07:05:15;;;;;;;0.10;0.10;;;;;;;;;;5057924;28;20063;-47
2023/09/04 07:07:41;;;;;;;0.38;0.30;;;;;;;;;;5052020;28;20895;-49
2023/09/04 07:10:07;;;;;;;0.15;0.15;;;;;;;;;;5062687;28;20052;-45
2023/09/04 07:12:34;;;;;;;0.10;0.10;;;;;;;;;;5063238;28;20200;-46
2023/09/04 07:14:59;;;;;;;0.10;0.10;;;;;;;;;;5073215;28;20245;-46
2023/09/04 07:17:25;;;;;;;0.20;0.20;;;;;;;;;;5080390;28;20157;-46
2023/09/04 07:19:51;;;;;;;0.10;0.10;;;;;;;;;;5077364;28;20050;-47
2023/09/04 07:22:16;;;;;;;0.20;0.20;;;;;;;;;;5083620;28;20047;-48
2023/09/04 07:24:42;;;;;;;0.10;0.10;;;;;;;;;;5073688;28;20051;-46
2023/09/04 07:27:07;;;;;;;0.17;0.17;;;;;;;;;;5077674;28;20067;-46
2023/09/04 07:29:33;;;;;;;0.20;0.20;;;;;;;;;;5078461;28;20071;-45
2023/09/04 07:31:59;;;;;;;0.10;0.10;;;;;;;;;;5080812;28;20048;-47
2023/09/04 07:34:24;;;;;;;0.10;0.10;;;;;;;;;;5082936;28;20039;-46
2023/09/04 07:36:52;;;;;;;0.10;0.10;;;;;;;;;;5080290;28;20229;-45
2023/09/04 07:39:17;;;;;;;0.20;0.20;;;;;;;;;;5072299;28;20047;-45
2023/09/04 07:41:43;;;;;;;0.10;0.10;;;;;;;;;;5079751;27;20442;-47
2023/09/04 07:44:08;;;;;;;0.20;0.20;;;;;;;;;;5081267;28;20040;-48
2023/09/04 07:46:34;;;;;;;0.10;0.10;;;;;;;;;;5027937;28;20044;-45
2023/09/04 07:48:59;;;;;;;0.17;0.17;;;;;;;;;;5079920;28;20052;-47
2023/09/04 07:51:25;;;;;;;0.20;0.20;;;;;;;;;;5083583;28;20051;-47
2023/09/04 07:54:01;;;;;;;0.10;0.10;;;;;;;;;;5056692;28;20445;-46
2023/09/04 07:56:27;;;;;;;0.10;0.10;;;;;;;;;;5075265;28;20138;-47
2023/09/04 07:58:54;;;;;;;0.17;0.17;;;;;;;;;;5080255;28;20100;-44
2023/09/04 08:01:19;;;;;;;0.10;0.10;;;;;;;;;;5080881;28;20139;-43
2023/09/04 08:03:45;;;;;;;0.10;0.10;;;;;;;;;;5065493;28;20553;-43
2023/09/04 08:06:10;;;;;;;0.10;0.10;;;;;;;;;;5070956;28;20055;-46
2023/09/04 08:08:36;;;;;;;0.10;0.10;;;;;;;;;;5063993;28;20109;-44
2023/09/04 08:11:02;;;;;;;0.10;0.10;;;;;;;;;;5063779;28;20295;-45
2023/09/04 08:13:27;;;;;;;0.13;0.13;;;;;;;;;;5064709;28;20051;-44
2023/09/04 08:15:53;;;;;;;0.10;0.10;;;;;;;;;;5074408;28;20054;-45
2023/09/04 08:18:18;;;;;;;0.10;0.10;;;;;;;;;;5073660;28;20051;-45
2023/09/04 08:20:44;;;;;;;0.10;0.10;;;;;;;;;;5077614;28;20711;-43
2023/09/04 08:23:09;;;;;;;0.20;0.20;;;;;;;;;;5079486;28;20893;-50
2023/09/04 08:25:36;;;;;;;0.20;0.20;;;;;;;;;;5069447;28;20059;-44
2023/09/04 08:28:03;;;;;;;0.20;0.20;;;;;;;;;;5078941;28;20058;-45
2023/09/04 08:30:29;;;;;;;0.20;0.20;;;;;;;;;;5053166;28;20104;-44
2023/09/04 08:32:54;;;;;;;0.10;0.10;;;;;;;;;;5066739;28;20203;-43
2023/09/04 08:35:20;;;;;;;0.10;0.10;;;;;;;;;;5070766;28;20067;-45
2023/09/04 08:37:46;;;;;;;0.10;0.10;;;;;;;;;;5058885;28;20635;-44
2023/09/04 08:40:12;;;;;;;0.20;0.20;;;;;;;;;;5068596;28;20044;-42
2023/09/04 08:42:38;;;;;;;0.10;0.10;;;;;;;;;;5073965;28;20051;-44
2023/09/04 08:45:05;;;;;;;0.38;0.30;;;;;;;;;;5081089;28;20086;-43
2023/09/04 08:47:32;;;;;;;0.15;0.15;;;;;;;;;;5081788;28;20512;-43
2023/09/04 08:50:00;;;;;;;0.10;0.10;;;;;;;;;;5086626;28;20060;-43
2023/09/04 08:52:25;;;;;;;0.10;0.10;;;;;;;;;;5081265;28;20171;-44
2023/09/04 08:54:51;;;;;;;0.17;0.17;;;;;;;;;;5082682;28;20148;-43
2023/09/04 08:57:17;;;;;;;0.15;0.15;;;;;;;;;;5087731;28;20090;-44
2023/09/04 08:59:42;;;;;;;0.10;0.10;;;;;;;;;;5087448;28;20121;-44
2023/09/04 09:02:13;;;;;;;0.10;0.10;;;;;;;;;;5085666;28;20424;-44
2023/09/04 09:04:39;;;;;;;0.20;0.20;;;;;;;;;;5078567;28;20108;-43
2023/09/04 09:07:04;;;;;;;0.10;0.10;;;;;;;;;;5084682;28;20044;-43
2023/09/04 09:09:30;;;;;;;0.10;0.10;;;;;;;;;;5089006;28;20495;-44
2023/09/04 09:11:55;;;;;;;0.10;0.10;;;;;;;;;;5082898;28;20529;-44
2023/09/04 09:14:22;;;;;;;0.10;0.10;;;;;;;;;;5084141;28;20044;-43
2023/09/04 09:16:47;;;;;;;0.10;0.10;;;;;;;;;;5086577;28;20532;-44
2023/09/04 09:19:13;;;;;;;0.10;0.10;;;;;;;;;;5079344;28;20036;-43
2023/09/04 09:21:39;;;;;;;0.10;0.10;;;;;;;;;;5089354;28;20350;-44
2023/09/04 09:24:07;;;;;;;0.10;0.10;;;;;;;;;;5086431;28;20412;-44
2023/09/04 09:26:32;;;;;;;0.10;0.10;;;;;;;;;;5081966;28;20055;-44
2023/09/04 09:28:58;;;;;;;0.10;0.10;;;;;;;;;;5035655;28;20051;-45
2023/09/04 09:31:23;;;;;;;0.10;0.10;;;;;;;;;;5006968;28;20812;-44
2023/09/04 09:33:49;;;;;;;0.10;0.10;;;;;;;;;;5013322;28;20410;-43
2023/09/04 09:36:15;;;;;;;0.10;0.10;;;;;;;;;;5065732;28;20095;-44
2023/09/04 09:38:42;;;;;;;0.10;0.10;;;;;;;;;;5069263;28;20143;-43
2023/09/04 09:41:07;;;;;;;0.10;0.10;;;;;;;;;;5069256;28;21126;-44
2023/09/04 09:43:33;;;;;;;0.20;0.20;;;;;;;;;;5081632;28;20044;-45
2023/09/04 09:46:00;;;;;;;0.10;0.10;;;;;;;;;;5074387;28;20079;-48
2023/09/04 09:48:26;;;;;;;0.10;0.10;;;;;;;;;;5083434;28;20086;-47
2023/09/04 09:50:54;;;;;;;0.10;0.10;;;;;;;;;;5088969;28;20344;-50
2023/09/04 09:53:20;;;;;;;0.80;0.20;;;;;;;;;;5080369;28;20563;-47
2023/09/04 09:55:47;;;;;;;0.10;0.10;;;;;;;;;;5084099;28;20400;-41
2023/09/04 09:58:14;;;;;;;0.13;0.13;;;;;;;;;;5083265;28;20044;-43
2023/09/04 10:00:40;;;;;;;0.20;0.20;;;;;;;;;;5083968;28;20124;-42
2023/09/04 10:03:06;;;;;;;0.10;0.10;;;;;;;;;;5080700;28;20461;-42
2023/09/04 10:05:32;;;;;;;0.10;0.10;;;;;;;;;;5081591;28;20638;-41
2023/09/04 10:07:59;;;;;;;0.10;0.10;;;;;;;;;;5079717;28;20097;-42
2023/09/04 10:10:25;;;;;;;0.20;0.20;;;;;;;;;;5089676;28;20572;-43
2023/09/04 10:12:56;;;;;;;0.10;0.10;;;;;;;;;;5086551;28;20097;-42
2023/09/04 10:15:25;;;;;;;0.10;0.10;;;;;;;;;;5084956;28;20071;-42
2023/09/04 10:18:11;;;;;;;0.20;0.20;;;;;;;;;;5081497;28;20043;-42
2023/09/04 10:20:39;;;;;;;0.20;0.20;;;;;;;;;;5067430;28;20485;-41
2023/09/04 10:23:07;;;;;;;0.10;0.10;;;;;;;;;;5083590;28;20054;-41
2023/09/04 10:25:54;;;;;;;0.10;0.10;;;;;;;;;;5083897;28;20153;-41
2023/09/04 10:28:36;;;;;;;0.10;0.10;;;;;;;;;;5062689;28;20539;-42
2023/09/04 10:31:10;;;;;;;0.10;0.10;;;;;;;;;;5081012;28;20051;-42
2023/09/04 10:33:37;;;;;;;0.10;0.10;;;;;;;;;;5083132;28;20439;-41
2023/09/04 10:36:03;;;;;;;0.20;0.20;;;;;;;;;;5079833;28;20078;-42
2023/09/04 10:38:29;;;;;;;0.10;0.10;;;;;;;;;;5080875;28;20282;-41
2023/09/04 10:40:56;;;;;;;0.10;0.10;;;;;;;;;;5075305;28;20540;-41
2023/09/04 10:43:21;;;;;;;0.10;0.10;;;;;;;;;;5070992;28;20055;-42
2023/09/04 10:46:08;;;;;;;0.10;0.10;;;;;;;;;;5074850;28;20044;-42
2023/09/04 10:48:45;;;;;;;0.20;0.20;;;;;;;;;;5061833;28;20051;-42
2023/09/04 10:51:30;;;;;;;0.20;0.20;;;;;;;;;;5082185;28;20039;-41
2023/09/04 10:53:57;;;;;;;0.10;0.10;;;;;;;;;;5070247;28;20154;-42
2023/09/04 10:56:23;;;;;;;0.10;0.10;;;;;;;;;;5090721;28;20500;-42
2023/09/04 10:59:05;;;;;;;0.10;0.10;;;;;;;;;;5090034;28;20176;-41
2023/09/04 11:01:38;;;;;;;0.10;0.10;;;;;;;;;;5087356;28;20051;-41
2023/09/04 11:04:05;;;;;;;0.20;0.20;;;;;;;;;;5085914;28;20535;-41
2023/09/04 11:06:32;;;;;;;0.20;0.20;;;;;;;;;;5080120;28;20047;-43
2023/09/04 11:09:00;;;;;;;0.10;0.10;;;;;;;;;;5082315;28;20112;-43
2023/09/04 11:11:26;;;;;;;0.10;0.10;;;;;;;;;;5055678;28;20111;-41
2023/09/04 11:13:55;;;;;;;0.10;0.10;;;;;;;;;;5075878;28;20071;-42
2023/09/04 11:16:20;;;;;;;0.10;0.10;;;;;;;;;;5081205;28;20075;-43
2023/09/04 11:18:46;;;;;;;0.20;0.20;;;;;;;;;;5080041;28;20043;-42
2023/09/04 11:21:12;;;;;;;0.10;0.10;;;;;;;;;;5079714;28;20455;-46
2023/09/04 11:23:40;;;;;;;0.10;0.10;;;;;;;;;;5075366;28;20949;-53
2023/09/04 11:26:06;;;;;;;0.10;0.10;;;;;;;;;;5079042;28;20112;-42
2023/09/04 11:28:31;;;;;;;0.10;0.10;;;;;;;;;;5066740;28;20067;-43
2023/09/04 11:30:58;;;;;;;0.10;0.10;;;;;;;;;;5070263;28;20044;-42
2023/09/04 11:33:24;;;;;;;0.10;0.10;;;;;;;;;;5075386;28;20044;-41
2023/09/04 11:35:59;;;;;;;0.10;0.10;;;;;;;;;;5081066;28;20051;-42
2023/09/04 11:38:26;;;;;;;0.10;0.10;;;;;;;;;;5080289;28;20047;-42
2023/09/04 11:40:52;;;;;;;0.10;0.10;;;;;;;;;;5077855;28;20066;-42
2023/09/04 11:43:18;;;;;;;0.10;0.10;;;;;;;;;;5082586;28;20098;-42
2023/09/04 11:45:44;;;;;;;0.10;0.10;;;;;;;;;;5085469;28;20496;-42
2023/09/04 11:48:10;;;;;;;0.10;0.10;;;;;;;;;;5086466;28;20059;-42
2023/09/04 11:50:36;;;;;;;0.10;0.10;;;;;;;;;;5081840;28;20119;-42
2023/09/04 11:53:01;;;;;;;0.10;0.10;;;;;;;;;;5084594;28;20075;-43
2023/09/04 11:55:27;;;;;;;0.10;0.10;;;;;;;;;;5081284;28;20099;-55
2023/09/04 11:57:53;;;;;;;0.10;0.10;;;;;;;;;;5080116;28;20048;-43
2023/09/04 12:00:18;;;;;;;0.20;0.20;;;;;;;;;;5081202;28;20142;-42
2023/09/04 12:02:44;;;;;;;0.10;0.10;;;;;;;;;;5066398;28;20512;-42
2023/09/04 12:05:10;;;;;;;0.20;0.20;;;;;;;;;;5091072;28;20146;-42
2023/09/04 12:07:37;;;;;;;0.10;0.10;;;;;;;;;;5086044;28;20395;-41
2023/09/04 12:10:06;;;;;;;0.20;0.20;;;;;;;;;;5083620;28;20044;-42
2023/09/04 12:12:32;;;;;;;0.10;0.10;;;;;;;;;;5082570;28;20056;-42
2023/09/04 12:14:58;;;;;;;0.10;0.10;;;;;;;;;;5076052;28;20402;-42
2023/09/04 12:17:27;;;;;;;0.10;0.10;;;;;;;;;;5090387;28;20359;-42
2023/09/04 12:19:52;;;;;;;0.10;0.10;;;;;;;;;;5088974;28;20051;-42
2023/09/04 12:22:19;;;;;;;0.10;0.10;;;;;;;;;;5089056;28;20047;-42
2023/09/04 12:25:04;;;;;;;0.10;0.10;;;;;;;;;;5086783;28;20093;-43
2023/09/04 12:27:29;;;;;;;0.10;0.10;;;;;;;;;;5081635;28;20043;-42
2023/09/04 12:29:55;;;;;;;0.10;0.10;;;;;;;;;;5083487;28;20049;-42
2023/09/04 12:32:21;;;;;;;0.10;0.10;;;;;;;;;;5078112;28;20062;-42
2023/09/04 12:34:48;;;;;;;0.10;0.10;;;;;;;;;;5074800;28;20163;-42
2023/09/04 12:37:14;;;;;;;0.10;0.10;;;;;;;;;;5076708;28;20147;-41
2023/09/04 12:39:39;;;;;;;0.10;0.10;;;;;;;;;;5082265;28;20039;-41
2023/09/04 12:42:06;;;;;;;0.10;0.10;;;;;;;;;;5080581;28;20101;-43
2023/09/04 12:44:32;;;;;;;0.20;0.20;;;;;;;;;;5091172;28;20055;-41
2023/09/04 12:46:57;;;;;;;0.10;0.10;;;;;;;;;;5083949;28;20067;-41
2023/09/04 12:49:23;;;;;;;0.10;0.10;;;;;;;;;;5088585;28;20048;-41
2023/09/04 12:51:48;;;;;;;0.20;0.20;;;;;;;;;;5092299;28;20471;-43
2023/09/04 12:54:14;;;;;;;0.10;0.10;;;;;;;;;;5091977;28;20051;-42
2023/09/04 12:56:40;;;;;;;0.10;0.10;;;;;;;;;;5091881;28;20097;-42
2023/09/04 12:59:05;;;;;;;0.10;0.10;;;;;;;;;;5090399;28;20048;-42
2023/09/04 13:01:31;;;;;;;0.10;0.10;;;;;;;;;;5089021;28;20063;-42
2023/09/04 13:03:56;;;;;;;0.10;0.10;;;;;;;;;;5090122;28;20044;-41
2023/09/04 13:06:22;;;;;;;0.10;0.10;;;;;;;;;;5092393;28;20051;-42
2023/09/04 13:08:48;;;;;;;0.10;0.10;;;;;;;;;;5081035;28;20549;-41
2023/09/04 13:11:14;;;;;;;0.10;0.10;;;;;;;;;;5084261;28;20491;-42
2023/09/04 13:13:41;;;;;;;0.10;0.10;;;;;;;;;;5093520;28;20051;-42
2023/09/04 13:16:07;;;;;;;0.10;0.10;;;;;;;;;;5090303;28;20067;-41
2023/09/04 13:18:32;;;;;;;0.10;0.10;;;;;;;;;;5090468;28;20438;-42
2023/09/04 13:20:58;;;;;;;0.10;0.10;;;;;;;;;;5093061;28;20047;-42
2023/09/04 13:23:23;;;;;;;0.10;0.10;;;;;;;;;;5086684;28;20044;-42
2023/09/04 13:25:49;;;;;;;0.10;0.10;;;;;;;;;;5089982;28;20036;-43
2023/09/04 13:28:15;;;;;;;0.10;0.10;;;;;;;;;;5080582;28;20146;-42
2023/09/04 13:30:40;;;;;;;0.20;0.20;;;;;;;;;;5072542;28;20647;-42
2023/09/04 13:33:06;;;;;;;0.10;0.10;;;;;;;;;;5081366;28;20590;-42
2023/09/04 13:35:32;;;;;;;0.20;0.20;;;;;;;;;;5087655;28;20035;-42
2023/09/04 13:37:58;;;;;;;0.10;0.10;;;;;;;;;;5088006;28;20401;-41
2023/09/04 13:40:23;;;;;;;0.17;0.17;;;;;;;;;;5085752;28;20063;-41
2023/09/04 13:42:49;;;;;;;0.10;0.10;;;;;;;;;;5089334;28;20435;-44
2023/09/04 13:45:14;;;;;;;0.10;0.10;;;;;;;;;;5091358;28;20599;-42
2023/09/04 13:47:40;;;;;;;0.10;0.10;;;;;;;;;;5081739;28;20108;-41
2023/09/04 13:50:06;;;;;;;0.10;0.10;;;;;;;;;;5079343;28;20044;-42
2023/09/04 13:52:31;;;;;;;0.10;0.10;;;;;;;;;;5095360;28;20664;-42
2023/09/04 13:54:57;;;;;;;0.10;0.10;;;;;;;;;;5095399;28;20442;-42
2023/09/04 13:57:23;;;;;;;0.63;0.30;;;;;;;;;;5093533;28;20496;-42
2023/09/04 13:59:48;;;;;;;0.10;0.10;;;;;;;;;;5095293;28;20093;-43
2023/09/04 14:02:15;;;;;;;0.10;0.10;;;;;;;;;;5091830;28;20047;-42
2023/09/04 14:04:40;;;;;;;0.10;0.10;;;;;;;;;;5091413;28;20039;-42
2023/09/04 14:07:06;;;;;;;0.20;0.20;;;;;;;;;;5087985;28;20541;-42
2023/09/04 14:09:32;;;;;;;0.10;0.10;;;;;;;;;;5089171;28;20138;-42
2023/09/04 14:11:58;;;;;;;0.10;0.10;;;;;;;;;;5093038;28;20515;-42
2023/09/04 14:14:25;;;;;;;0.10;0.10;;;;;;;;;;5096515;28;20389;-43
2023/09/04 14:16:50;;;;;;;0.10;0.10;;;;;;;;;;5095340;28;20051;-43
2023/09/04 14:19:16;;;;;;;0.10;0.10;;;;;;;;;;5094710;28;20054;-41
2023/09/04 14:21:42;;;;;;;0.10;0.10;;;;;;;;;;5095921;28;20044;-42
2023/09/04 14:24:08;;;;;;;0.10;0.10;;;;;;;;;;5095146;28;20048;-42
2023/09/04 14:26:33;;;;;;;0.10;0.10;;;;;;;;;;5092570;28;20226;-42
2023/09/04 14:29:00;;;;;;;0.10;0.10;;;;;;;;;;5095675;28;20337;-42
2023/09/04 14:31:25;;;;;;;0.30;0.30;;;;;;;;;;5085835;28;20075;-42
2023/09/04 14:33:51;;;;;;;0.10;0.10;;;;;;;;;;5088565;28;20066;-41
2023/09/04 14:36:16;;;;;;;0.10;0.10;;;;;;;;;;5107920;28;20079;-41
2023/09/04 14:38:42;;;;;;;0.10;0.10;;;;;;;;;;5098714;28;20651;-42